VENUS61 KADW-KNBG
Flight info
| Callsign | VENUS61 |
|---|---|
| Flight time | N/A |
| Altitude | 40000 |
| Route | JEFSN2 MELTN OMENS Q22 CATLN Q56 SJI MNSTR1 |
| Aircraft | B737/M-SDE2E3FGHIRWXY/LB1 |
Departure
| Time | 2026-04-25 09:53 |
|---|---|
| Airport | Joint Base Andrews (KADW) |
Arrival
| Time | N/A |
|---|---|
| Airport | New Orleans NAS JRB/Alvin Callender Field (KNBG) |
| Time | Latitude | Longitude | Altitude | Speed | Heading |
|---|---|---|---|---|---|
| 2026-04-25 09:33 | 38.81221 | -76.87671 | 280 ft | 0 kts | 358° |
| 2026-04-25 09:47 | 38.81228 | -76.87672 | 284 ft | 3 kts | 358° |
| 2026-04-25 09:48 | 38.81263 | -76.87667 | 281 ft | 8 kts | 32° |
| 2026-04-25 09:48 | 38.81277 | -76.87574 | 282 ft | 15 kts | 89° |
| 2026-04-25 09:48 | 38.81294 | -76.87458 | 282 ft | 12 kts | 31° |
| 2026-04-25 09:48 | 38.81385 | -76.87448 | 281 ft | 15 kts | 360° |
| 2026-04-25 09:49 | 38.81488 | -76.87449 | 285 ft | 14 kts | 360° |
| 2026-04-25 09:49 | 38.81587 | -76.87449 | 284 ft | 14 kts | 360° |
| 2026-04-25 09:49 | 38.81680 | -76.87449 | 287 ft | 13 kts | 360° |
| 2026-04-25 09:49 | 38.81771 | -76.87450 | 284 ft | 13 kts | 358° |
| 2026-04-25 09:50 | 38.81859 | -76.87450 | 289 ft | 13 kts | 0° |
| 2026-04-25 09:50 | 38.81945 | -76.87450 | 286 ft | 12 kts | 0° |
| 2026-04-25 09:50 | 38.82029 | -76.87451 | 287 ft | 12 kts | 359° |
| 2026-04-25 09:50 | 38.82118 | -76.87451 | 286 ft | 14 kts | 360° |
| 2026-04-25 09:51 | 38.82224 | -76.87452 | 286 ft | 16 kts | 359° |
| 2026-04-25 09:51 | 38.82301 | -76.87402 | 288 ft | 13 kts | 64° |
| 2026-04-25 09:51 | 38.82308 | -76.87291 | 294 ft | 12 kts | 90° |
| 2026-04-25 09:51 | 38.82309 | -76.87180 | 293 ft | 12 kts | 90° |
| 2026-04-25 09:52 | 38.82295 | -76.87079 | 297 ft | 12 kts | 141° |
| 2026-04-25 09:52 | 38.82243 | -76.87068 | 293 ft | 3 kts | 180° |
| 2026-04-25 09:52 | 38.81891 | -76.87067 | 286 ft | 101 kts | 179° |
| 2026-04-25 09:52 | 38.80890 | -76.87041 | 366 ft | 178 kts | 179° |
| 2026-04-25 09:53 | 38.79529 | -76.87099 | 1056 ft | 209 kts | 181° |
| 2026-04-25 09:53 | 38.78017 | -76.87140 | 1973 ft | 217 kts | 179° |
| 2026-04-25 09:53 | 38.76511 | -76.87161 | 3041 ft | 222 kts | 179° |
| 2026-04-25 09:53 | 38.74865 | -76.87203 | 3479 ft | 253 kts | 179° |
| 2026-04-25 09:54 | 38.73081 | -76.87259 | 4398 ft | 260 kts | 180° |
| 2026-04-25 09:54 | 38.71267 | -76.87324 | 5632 ft | 261 kts | 180° |
| 2026-04-25 09:54 | 38.69449 | -76.87393 | 6840 ft | 261 kts | 181° |
| 2026-04-25 09:54 | 38.67637 | -76.87462 | 8017 ft | 262 kts | 182° |
| 2026-04-25 09:55 | 38.65785 | -76.87534 | 8961 ft | 271 kts | 184° |
| 2026-04-25 09:55 | 38.63870 | -76.87611 | 9858 ft | 279 kts | 185° |
| 2026-04-25 09:55 | 38.61939 | -76.88025 | 10640 ft | 286 kts | 207° |
| 2026-04-25 09:55 | 38.60370 | -76.89559 | 11476 ft | 287 kts | 235° |
| 2026-04-25 09:56 | 38.59457 | -76.91817 | 12451 ft | 287 kts | 256° |
| 2026-04-25 09:56 | 38.59141 | -76.94347 | 13413 ft | 290 kts | 265° |
| 2026-04-25 09:56 | 38.58940 | -76.96937 | 14282 ft | 296 kts | 265° |
| 2026-04-25 09:56 | 38.58737 | -76.99589 | 15124 ft | 301 kts | 265° |
| 2026-04-25 09:57 | 38.58524 | -77.02268 | 16027 ft | 305 kts | 265° |
| 2026-04-25 09:57 | 38.58303 | -77.04948 | 16848 ft | 310 kts | 265° |
| 2026-04-25 09:57 | 38.58070 | -77.07708 | 17681 ft | 314 kts | 265° |
| 2026-04-25 09:57 | 38.57826 | -77.10537 | 18498 ft | 319 kts | 265° |
| 2026-04-25 09:58 | 38.57583 | -77.13336 | 19274 ft | 323 kts | 265° |
| 2026-04-25 09:58 | 38.57425 | -77.16209 | 20083 ft | 325 kts | 274° |
| 2026-04-25 09:58 | 38.57696 | -77.19087 | 20860 ft | 328 kts | 281° |
| 2026-04-25 09:58 | 38.57938 | -77.21001 | 21358 ft | 331 kts | 281° |
| 2026-04-25 09:59 | 38.58295 | -77.23921 | 22131 ft | 334 kts | 280° |
| 2026-04-25 09:59 | 38.58637 | -77.26881 | 22866 ft | 337 kts | 280° |
| 2026-04-25 09:59 | 38.59073 | -77.30852 | 23789 ft | 343 kts | 280° |
| 2026-04-25 09:59 | 38.59291 | -77.32900 | 24261 ft | 345 kts | 280° |
| 2026-04-25 10:00 | 38.59612 | -77.35956 | 24958 ft | 349 kts | 279° |
| 2026-04-25 10:00 | 38.59882 | -77.39049 | 25654 ft | 353 kts | 272° |
| 2026-04-25 10:00 | 38.59433 | -77.42160 | 26268 ft | 363 kts | 250° |
| 2026-04-25 10:00 | 38.58135 | -77.44977 | 26750 ft | 379 kts | 234° |
| 2026-04-25 10:01 | 38.56105 | -77.47215 | 26822 ft | 405 kts | 214° |
| 2026-04-25 10:01 | 38.53580 | -77.48973 | 26961 ft | 422 kts | 211° |
| 2026-04-25 10:01 | 38.50943 | -77.50742 | 27225 ft | 432 kts | 211° |
| 2026-04-25 10:01 | 38.48274 | -77.52522 | 27727 ft | 434 kts | 211° |
| 2026-04-25 10:02 | 38.45596 | -77.54322 | 28323 ft | 435 kts | 211° |
| 2026-04-25 10:02 | 38.42914 | -77.56143 | 28829 ft | 437 kts | 212° |
| 2026-04-25 10:02 | 38.40227 | -77.57979 | 29315 ft | 439 kts | 212° |
| 2026-04-25 10:02 | 38.37525 | -77.59831 | 29778 ft | 442 kts | 212° |
| 2026-04-25 10:03 | 38.34803 | -77.61696 | 30205 ft | 444 kts | 212° |
| 2026-04-25 10:03 | 38.32071 | -77.63565 | 30600 ft | 447 kts | 212° |
| 2026-04-25 10:03 | 38.29331 | -77.65452 | 30987 ft | 449 kts | 213° |
| 2026-04-25 10:03 | 38.26680 | -77.67552 | 31335 ft | 449 kts | 218° |
| 2026-04-25 10:04 | 38.24102 | -77.69820 | 31691 ft | 450 kts | 219° |
| 2026-04-25 10:04 | 38.21549 | -77.72118 | 32117 ft | 450 kts | 219° |
| 2026-04-25 10:04 | 38.18989 | -77.74400 | 32612 ft | 447 kts | 219° |
| 2026-04-25 10:04 | 38.16434 | -77.76637 | 33113 ft | 445 kts | 219° |
| 2026-04-25 10:05 | 38.13906 | -77.78821 | 33539 ft | 444 kts | 219° |
| 2026-04-25 10:05 | 38.11344 | -77.81017 | 33899 ft | 444 kts | 219° |
| 2026-04-25 10:05 | 38.08786 | -77.83202 | 34268 ft | 443 kts | 219° |
| 2026-04-25 10:05 | 38.06237 | -77.85383 | 34673 ft | 441 kts | 219° |
| 2026-04-25 10:06 | 38.03692 | -77.87558 | 35083 ft | 439 kts | 219° |
| 2026-04-25 10:06 | 38.01165 | -77.89715 | 35450 ft | 437 kts | 219° |
| 2026-04-25 10:06 | 37.98639 | -77.91869 | 35792 ft | 436 kts | 219° |
| 2026-04-25 10:06 | 37.96118 | -77.94015 | 36118 ft | 436 kts | 219° |
| 2026-04-25 10:07 | 37.93605 | -77.96160 | 36454 ft | 434 kts | 219° |
| 2026-04-25 10:07 | 37.91101 | -77.98292 | 36732 ft | 434 kts | 219° |
| 2026-04-25 10:07 | 37.88631 | -78.00396 | 37008 ft | 433 kts | 220° |
| 2026-04-25 10:07 | 37.86134 | -78.02518 | 37319 ft | 432 kts | 220° |
| 2026-04-25 10:08 | 37.83643 | -78.04633 | 37632 ft | 430 kts | 220° |
| 2026-04-25 10:08 | 37.81164 | -78.06735 | 37901 ft | 429 kts | 220° |
| 2026-04-25 10:08 | 37.78684 | -78.08838 | 38133 ft | 429 kts | 220° |
| 2026-04-25 10:08 | 37.76209 | -78.10934 | 38414 ft | 427 kts | 220° |
| 2026-04-25 10:09 | 37.73746 | -78.13023 | 38665 ft | 426 kts | 220° |
| 2026-04-25 10:09 | 37.71281 | -78.15108 | 38905 ft | 425 kts | 220° |
| 2026-04-25 10:09 | 37.68828 | -78.17179 | 39176 ft | 423 kts | 220° |
| 2026-04-25 10:09 | 37.66381 | -78.19243 | 39405 ft | 422 kts | 220° |
| 2026-04-25 10:10 | 37.63933 | -78.21307 | 39510 ft | 424 kts | 220° |
| 2026-04-25 10:10 | 37.61482 | -78.23375 | 39675 ft | 424 kts | 219° |
| 2026-04-25 10:10 | 37.59031 | -78.25442 | 39857 ft | 424 kts | 219° |
| 2026-04-25 10:10 | 37.56558 | -78.27528 | 39830 ft | 428 kts | 219° |
| 2026-04-25 10:11 | 37.51609 | -78.31690 | 39846 ft | 427 kts | 219° |
| 2026-04-25 10:11 | 37.46738 | -78.35773 | 39841 ft | 421 kts | 219° |
| 2026-04-25 10:12 | 37.41871 | -78.39850 | 39839 ft | 418 kts | 219° |
| 2026-04-25 10:13 | 37.34630 | -78.45910 | 39843 ft | 415 kts | 219° |
| 2026-04-25 10:13 | 37.29824 | -78.49925 | 39843 ft | 415 kts | 219° |
| 2026-04-25 10:14 | 37.25033 | -78.53920 | 39849 ft | 417 kts | 219° |
| 2026-04-25 10:14 | 37.20188 | -78.57954 | 39853 ft | 419 kts | 219° |
| 2026-04-25 10:15 | 37.15429 | -78.62208 | 39861 ft | 420 kts | 221° |
| 2026-04-25 10:15 | 37.10728 | -78.66611 | 39859 ft | 422 kts | 221° |
| 2026-04-25 10:16 | 37.05990 | -78.71003 | 39868 ft | 425 kts | 221° |
| 2026-04-25 10:16 | 37.01235 | -78.75368 | 39859 ft | 427 kts | 221° |
| 2026-04-25 10:17 | 36.96439 | -78.79752 | 39862 ft | 427 kts | 220° |
| 2026-04-25 10:17 | 36.91635 | -78.84136 | 39860 ft | 427 kts | 220° |
| 2026-04-25 10:18 | 36.86844 | -78.88510 | 39860 ft | 426 kts | 220° |
| 2026-04-25 10:18 | 36.82233 | -78.93099 | 39862 ft | 419 kts | 230° |
| 2026-04-25 10:19 | 36.78765 | -78.98839 | 39881 ft | 413 kts | 238° |
| 2026-04-25 10:19 | 36.75479 | -79.04657 | 39876 ft | 413 kts | 238° |
| 2026-04-25 10:20 | 36.72144 | -79.10488 | 39865 ft | 412 kts | 238° |
| 2026-04-25 10:20 | 36.68802 | -79.16297 | 39868 ft | 412 kts | 238° |
| 2026-04-25 10:21 | 36.65456 | -79.22099 | 39870 ft | 411 kts | 237° |
| 2026-04-25 10:21 | 36.62136 | -79.27846 | 39872 ft | 411 kts | 237° |
| 2026-04-25 10:22 | 36.58791 | -79.33630 | 39866 ft | 412 kts | 237° |
| 2026-04-25 10:22 | 36.55438 | -79.39416 | 39876 ft | 413 kts | 237° |
| 2026-04-25 10:23 | 36.52073 | -79.45215 | 39871 ft | 414 kts | 237° |
| 2026-04-25 10:23 | 36.48696 | -79.51021 | 39884 ft | 415 kts | 237° |
| 2026-04-25 10:24 | 36.45295 | -79.56857 | 39880 ft | 417 kts | 237° |
| 2026-04-25 10:24 | 36.41887 | -79.62702 | 39884 ft | 418 kts | 236° |
| 2026-04-25 10:25 | 36.38469 | -79.68551 | 39884 ft | 419 kts | 237° |
| 2026-04-25 10:25 | 36.35064 | -79.74369 | 39888 ft | 419 kts | 236° |
| 2026-04-25 10:26 | 36.31630 | -79.80224 | 39888 ft | 420 kts | 236° |
| 2026-04-25 10:26 | 36.28183 | -79.86090 | 39889 ft | 420 kts | 236° |
| 2026-04-25 10:27 | 36.24730 | -79.91959 | 39893 ft | 421 kts | 236° |
| 2026-04-25 10:27 | 36.21299 | -79.97784 | 39888 ft | 422 kts | 236° |
| 2026-04-25 10:28 | 36.17836 | -80.03650 | 39886 ft | 422 kts | 236° |
| 2026-04-25 10:28 | 36.14370 | -80.09511 | 39893 ft | 421 kts | 236° |
| 2026-04-25 10:29 | 36.10898 | -80.15361 | 39885 ft | 421 kts | 236° |
| 2026-04-25 10:29 | 36.07440 | -80.21188 | 39898 ft | 420 kts | 236° |
| 2026-04-25 10:30 | 36.04005 | -80.26975 | 39897 ft | 419 kts | 236° |
| 2026-04-25 10:30 | 36.00551 | -80.32781 | 39902 ft | 419 kts | 236° |
| 2026-04-25 10:31 | 35.97098 | -80.38573 | 39898 ft | 418 kts | 236° |
| 2026-04-25 10:31 | 35.93649 | -80.44355 | 39907 ft | 418 kts | 236° |
| 2026-04-25 10:32 | 35.90199 | -80.50139 | 39909 ft | 418 kts | 236° |
| 2026-04-25 10:32 | 35.86742 | -80.55931 | 39906 ft | 419 kts | 236° |
| 2026-04-25 10:33 | 35.83310 | -80.61663 | 39902 ft | 418 kts | 236° |
| 2026-04-25 10:33 | 35.79854 | -80.67428 | 39912 ft | 418 kts | 236° |
| 2026-04-25 10:34 | 35.76399 | -80.73185 | 39907 ft | 418 kts | 236° |
| 2026-04-25 10:34 | 35.72941 | -80.78935 | 39908 ft | 418 kts | 236° |
| 2026-04-25 10:35 | 35.69472 | -80.84697 | 39922 ft | 422 kts | 235° |
| 2026-04-25 10:35 | 35.65931 | -80.90568 | 39920 ft | 430 kts | 235° |
| 2026-04-25 10:36 | 35.62357 | -80.96482 | 39900 ft | 432 kts | 235° |
| 2026-04-25 10:36 | 35.58774 | -81.02402 | 39916 ft | 432 kts | 235° |
| 2026-04-25 10:37 | 35.55198 | -81.08292 | 39904 ft | 432 kts | 235° |
| 2026-04-25 10:37 | 35.51606 | -81.14200 | 39907 ft | 431 kts | 235° |
| 2026-04-25 10:38 | 35.48027 | -81.20079 | 39901 ft | 429 kts | 235° |
| 2026-04-25 10:38 | 35.44451 | -81.25938 | 39908 ft | 427 kts | 235° |
| 2026-04-25 10:39 | 35.40894 | -81.31783 | 39908 ft | 426 kts | 235° |
| 2026-04-25 10:39 | 35.37347 | -81.37573 | 39901 ft | 424 kts | 235° |
| 2026-04-25 10:40 | 35.33832 | -81.43305 | 39912 ft | 422 kts | 235° |
| 2026-04-25 10:40 | 35.30310 | -81.49053 | 39918 ft | 421 kts | 235° |
| 2026-04-25 10:41 | 35.26794 | -81.54781 | 39918 ft | 421 kts | 235° |
| 2026-04-25 10:41 | 35.23271 | -81.60501 | 39921 ft | 421 kts | 235° |
| 2026-04-25 10:42 | 35.19740 | -81.66222 | 39912 ft | 421 kts | 235° |
| 2026-04-25 10:42 | 35.16207 | -81.71943 | 39920 ft | 422 kts | 235° |
| 2026-04-25 10:43 | 35.12666 | -81.77667 | 39916 ft | 423 kts | 235° |
| 2026-04-25 10:43 | 35.09129 | -81.83375 | 39923 ft | 424 kts | 235° |
| 2026-04-25 10:44 | 35.05564 | -81.89125 | 39912 ft | 425 kts | 235° |
| 2026-04-25 10:44 | 35.02003 | -81.94902 | 39909 ft | 426 kts | 236° |
| 2026-04-25 10:45 | 34.98544 | -82.00786 | 39908 ft | 426 kts | 237° |
| 2026-04-25 10:45 | 34.95693 | -82.05687 | 39917 ft | 426 kts | 237° |
| 2026-04-25 10:46 | 34.91693 | -82.12526 | 39920 ft | 425 kts | 237° |
| 2026-04-25 10:46 | 34.88810 | -82.17436 | 39909 ft | 424 kts | 237° |
| 2026-04-25 10:47 | 34.85390 | -82.23229 | 39912 ft | 423 kts | 237° |
| 2026-04-25 10:47 | 34.81952 | -82.29043 | 39914 ft | 421 kts | 237° |
| 2026-04-25 10:48 | 34.78531 | -82.34817 | 39918 ft | 420 kts | 237° |
| 2026-04-25 10:48 | 34.75114 | -82.40580 | 39913 ft | 420 kts | 237° |
| 2026-04-25 10:49 | 34.71721 | -82.46297 | 39915 ft | 419 kts | 237° |
| 2026-04-25 10:49 | 34.68299 | -82.52052 | 39922 ft | 420 kts | 237° |
| 2026-04-25 10:50 | 34.64875 | -82.57798 | 39922 ft | 420 kts | 237° |
| 2026-04-25 10:50 | 34.61437 | -82.63566 | 39916 ft | 421 kts | 237° |
| 2026-04-25 10:51 | 34.57983 | -82.69341 | 39903 ft | 423 kts | 237° |
| 2026-04-25 10:51 | 34.54526 | -82.75115 | 39912 ft | 423 kts | 237° |
| 2026-04-25 10:52 | 34.51059 | -82.80899 | 39906 ft | 424 kts | 237° |
| 2026-04-25 10:52 | 34.47588 | -82.86680 | 39904 ft | 424 kts | 237° |
| 2026-04-25 10:53 | 34.44131 | -82.92426 | 39913 ft | 424 kts | 237° |
| 2026-04-25 10:53 | 34.40650 | -82.98200 | 39916 ft | 424 kts | 237° |
| 2026-04-25 10:54 | 34.37166 | -83.03967 | 39926 ft | 424 kts | 237° |
| 2026-04-25 10:54 | 34.33686 | -83.09726 | 39924 ft | 424 kts | 237° |
| 2026-04-25 10:55 | 34.30199 | -83.15488 | 39928 ft | 424 kts | 237° |
| 2026-04-25 10:55 | 34.26715 | -83.21236 | 39925 ft | 423 kts | 237° |
| 2026-04-25 10:56 | 34.23230 | -83.26978 | 39929 ft | 423 kts | 236° |
| 2026-04-25 10:56 | 34.19763 | -83.32673 | 39924 ft | 423 kts | 237° |
| 2026-04-25 10:57 | 34.16271 | -83.38407 | 39917 ft | 423 kts | 236° |
| 2026-04-25 10:57 | 34.12765 | -83.44152 | 39916 ft | 423 kts | 236° |
| 2026-04-25 10:58 | 34.09271 | -83.49866 | 39918 ft | 423 kts | 236° |
| 2026-04-25 10:58 | 34.05798 | -83.55542 | 39916 ft | 423 kts | 236° |
| 2026-04-25 10:59 | 34.02298 | -83.61248 | 39924 ft | 423 kts | 236° |
| 2026-04-25 10:59 | 33.98805 | -83.66940 | 39934 ft | 422 kts | 236° |
| 2026-04-25 11:00 | 33.95305 | -83.72627 | 39935 ft | 422 kts | 236° |
| 2026-04-25 11:00 | 33.91807 | -83.78309 | 39936 ft | 423 kts | 236° |
| 2026-04-25 11:01 | 33.88282 | -83.83978 | 39929 ft | 423 kts | 235° |
| 2026-04-25 11:01 | 33.84630 | -83.89562 | 39927 ft | 424 kts | 234° |
| 2026-04-25 11:02 | 33.80952 | -83.95119 | 39923 ft | 424 kts | 234° |
| 2026-04-25 11:02 | 33.77277 | -84.00684 | 39910 ft | 425 kts | 234° |
| 2026-04-25 11:03 | 33.73633 | -84.06218 | 39910 ft | 426 kts | 234° |
| 2026-04-25 11:03 | 33.69952 | -84.11805 | 39904 ft | 426 kts | 234° |
| 2026-04-25 11:04 | 33.66275 | -84.17377 | 39905 ft | 425 kts | 234° |
| 2026-04-25 11:04 | 33.62605 | -84.22933 | 39903 ft | 424 kts | 234° |
| 2026-04-25 11:05 | 33.58929 | -84.28490 | 39914 ft | 424 kts | 234° |
| 2026-04-25 11:05 | 33.55286 | -84.33986 | 39915 ft | 423 kts | 234° |
| 2026-04-25 11:06 | 33.51618 | -84.39514 | 39916 ft | 423 kts | 234° |
| 2026-04-25 11:06 | 33.47954 | -84.45026 | 39918 ft | 422 kts | 234° |
| 2026-04-25 11:07 | 33.44290 | -84.50526 | 39926 ft | 422 kts | 234° |
| 2026-04-25 11:07 | 33.40643 | -84.55995 | 39921 ft | 422 kts | 234° |
| 2026-04-25 11:08 | 33.36976 | -84.61488 | 39920 ft | 421 kts | 234° |
| 2026-04-25 11:08 | 33.33320 | -84.66955 | 39915 ft | 421 kts | 234° |
| 2026-04-25 11:09 | 33.29666 | -84.72412 | 39925 ft | 420 kts | 234° |
| 2026-04-25 11:09 | 33.26010 | -84.77864 | 39927 ft | 420 kts | 234° |
| 2026-04-25 11:10 | 33.22370 | -84.83286 | 39931 ft | 420 kts | 234° |
| 2026-04-25 11:10 | 33.18714 | -84.88718 | 39926 ft | 420 kts | 234° |
| 2026-04-25 11:11 | 33.15054 | -84.94151 | 39928 ft | 420 kts | 234° |
| 2026-04-25 11:11 | 33.11395 | -84.99574 | 39926 ft | 420 kts | 234° |
| 2026-04-25 11:12 | 33.07734 | -85.04997 | 39929 ft | 419 kts | 234° |
| 2026-04-25 11:12 | 33.04064 | -85.10416 | 39925 ft | 420 kts | 234° |
| 2026-04-25 11:13 | 33.00397 | -85.15827 | 39927 ft | 419 kts | 234° |
| 2026-04-25 11:13 | 32.96749 | -85.21201 | 39928 ft | 419 kts | 235° |
| 2026-04-25 11:14 | 32.93078 | -85.26599 | 39923 ft | 419 kts | 235° |
| 2026-04-25 11:14 | 32.89406 | -85.31995 | 39925 ft | 419 kts | 235° |
| 2026-04-25 11:15 | 32.85732 | -85.37384 | 39925 ft | 419 kts | 235° |
| 2026-04-25 11:15 | 32.82057 | -85.42768 | 39929 ft | 419 kts | 235° |
| 2026-04-25 11:16 | 32.76539 | -85.50836 | 39928 ft | 420 kts | 235° |
| 2026-04-25 11:16 | 32.72851 | -85.56225 | 39933 ft | 420 kts | 235° |
| 2026-04-25 11:17 | 32.69177 | -85.61577 | 39927 ft | 421 kts | 235° |
| 2026-04-25 11:17 | 32.65472 | -85.66965 | 39925 ft | 421 kts | 235° |
| 2026-04-25 11:18 | 32.61767 | -85.72349 | 39928 ft | 421 kts | 235° |
| 2026-04-25 11:18 | 32.58052 | -85.77736 | 39922 ft | 422 kts | 235° |
| 2026-04-25 11:19 | 32.54329 | -85.83130 | 39914 ft | 422 kts | 235° |
| 2026-04-25 11:19 | 32.50604 | -85.88525 | 39916 ft | 423 kts | 235° |
| 2026-04-25 11:20 | 32.46873 | -85.93917 | 39905 ft | 423 kts | 235° |
| 2026-04-25 11:20 | 32.43140 | -85.99303 | 39910 ft | 423 kts | 235° |
| 2026-04-25 11:21 | 32.39421 | -86.04660 | 39901 ft | 424 kts | 235° |
| 2026-04-25 11:21 | 32.35676 | -86.10048 | 39910 ft | 424 kts | 235° |
| 2026-04-25 11:22 | 32.32553 | -86.14534 | 39909 ft | 424 kts | 235° |
| 2026-04-25 11:22 | 32.28164 | -86.20833 | 39909 ft | 425 kts | 235° |
| 2026-04-25 11:23 | 32.24398 | -86.26228 | 39897 ft | 425 kts | 235° |
| 2026-04-25 11:23 | 32.20633 | -86.31610 | 39918 ft | 425 kts | 235° |
| 2026-04-25 11:24 | 32.16893 | -86.36955 | 39910 ft | 425 kts | 235° |
| 2026-04-25 11:24 | 32.13130 | -86.42318 | 39914 ft | 424 kts | 235° |
| 2026-04-25 11:25 | 32.09362 | -86.47687 | 39917 ft | 424 kts | 235° |
| 2026-04-25 11:25 | 32.05596 | -86.53040 | 39916 ft | 423 kts | 235° |
| 2026-04-25 11:26 | 32.01839 | -86.58377 | 39917 ft | 423 kts | 235° |
| 2026-04-25 11:26 | 31.98082 | -86.63704 | 39909 ft | 422 kts | 235° |
| 2026-04-25 11:27 | 31.94348 | -86.68985 | 39917 ft | 422 kts | 235° |
| 2026-04-25 11:27 | 31.91200 | -86.73436 | 39917 ft | 422 kts | 234° |
| 2026-04-25 11:28 | 31.86831 | -86.79610 | 39920 ft | 423 kts | 234° |
| 2026-04-25 11:28 | 31.83056 | -86.84938 | 39917 ft | 423 kts | 234° |
| 2026-04-25 11:29 | 31.79278 | -86.90260 | 39921 ft | 424 kts | 234° |
| 2026-04-25 11:29 | 31.75515 | -86.95553 | 39917 ft | 424 kts | 234° |
| 2026-04-25 11:30 | 31.71715 | -87.00882 | 39912 ft | 425 kts | 234° |
| 2026-04-25 11:30 | 31.67919 | -87.06209 | 39905 ft | 425 kts | 234° |
| 2026-04-25 11:31 | 31.64121 | -87.11534 | 39904 ft | 425 kts | 234° |
| 2026-04-25 11:31 | 31.60967 | -87.15943 | 39895 ft | 424 kts | 234° |
| 2026-04-25 11:32 | 31.57168 | -87.21246 | 39901 ft | 424 kts | 234° |
| 2026-04-25 11:32 | 31.52763 | -87.27393 | 39906 ft | 423 kts | 234° |
| 2026-04-25 11:33 | 31.49592 | -87.31808 | 39894 ft | 422 kts | 234° |
| 2026-04-25 11:33 | 31.45817 | -87.37059 | 39891 ft | 421 kts | 234° |
| 2026-04-25 11:34 | 31.42065 | -87.42272 | 39898 ft | 420 kts | 234° |
| 2026-04-25 11:34 | 31.38294 | -87.47503 | 39899 ft | 420 kts | 234° |
| 2026-04-25 11:35 | 31.34522 | -87.52733 | 39896 ft | 421 kts | 233° |
| 2026-04-25 11:35 | 31.30742 | -87.57966 | 39893 ft | 420 kts | 234° |
| 2026-04-25 11:36 | 31.26926 | -87.63166 | 39900 ft | 421 kts | 233° |
| 2026-04-25 11:36 | 31.23111 | -87.68300 | 39916 ft | 421 kts | 233° |
| 2026-04-25 11:37 | 31.19271 | -87.73467 | 39912 ft | 421 kts | 233° |
| 2026-04-25 11:37 | 31.15429 | -87.78642 | 39927 ft | 421 kts | 233° |
| 2026-04-25 11:38 | 31.11591 | -87.83813 | 39922 ft | 421 kts | 233° |
| 2026-04-25 11:38 | 31.07743 | -87.88984 | 39933 ft | 422 kts | 233° |
| 2026-04-25 11:39 | 31.03890 | -87.94157 | 39938 ft | 423 kts | 233° |
| 2026-04-25 11:39 | 31.00022 | -87.99343 | 39934 ft | 424 kts | 233° |
| 2026-04-25 11:40 | 30.96175 | -88.04497 | 39943 ft | 425 kts | 233° |
| 2026-04-25 11:40 | 30.92292 | -88.09692 | 39938 ft | 425 kts | 233° |